sensor_id;sensor_type;location;lat;lon;timestamp;temperature;humidity
13369;DHT22;6753;52.520;13.450;2023-01-06T00:00:04;20.20;51.60
13369;DHT22;6753;52.520;13.450;2023-01-06T00:00:15;20.20;51.60
13369;DHT22;6753;52.520;13.450;2023-01-06T00:00:26;20.20;51.60
13369;DHT22;6753;52.520;13.450;2023-01-06T00:00:37;20.20;51.60
13369;DHT22;6753;52.520;13.450;2023-01-06T00:00:49;20.20;51.60
13369;DHT22;6753;52.520;13.450;2023-01-06T00:01:04;20.20;51.50
13369;DHT22;6753;52.520;13.450;2023-01-06T00:01:17;20.20;51.50
13369;DHT22;6753;52.520;13.450;2023-01-06T00:01:28;20.20;51.50
13369;DHT22;6753;52.520;13.450;2023-01-06T00:01:39;20.20;51.50
13369;DHT22;6753;52.520;13.450;2023-01-06T00:01:49;20.20;51.60
13369;DHT22;6753;52.520;13.450;2023-01-06T00:02:01;20.20;51.70
13369;DHT22;6753;52.520;13.450;2023-01-06T00:02:12;20.20;51.70
13369;DHT22;6753;52.520;13.450;2023-01-06T00:02:23;20.20;51.80
13369;DHT22;6753;52.520;13.450;2023-01-06T00:02:34;20.20;51.90
13369;DHT22;6753;52.520;13.450;2023-01-06T00:02:46;20.20;51.80
13369;DHT22;6753;52.520;13.450;2023-01-06T00:02:57;20.20;51.70
13369;DHT22;6753;52.520;13.450;2023-01-06T00:03:08;20.20;51.60
13369;DHT22;6753;52.520;13.450;2023-01-06T00:03:19;20.20;51.70
13369;DHT22;6753;52.520;13.450;2023-01-06T00:03:30;20.20;51.70
13369;DHT22;6753;52.520;13.450;2023-01-06T00:03:41;20.30;51.80
13369;DHT22;6753;52.520;13.450;2023-01-06T00:03:53;20.20;51.90
13369;DHT22;6753;52.520;13.450;2023-01-06T00:04:04;20.20;52.00
13369;DHT22;6753;52.520;13.450;2023-01-06T00:04:15;20.20;51.90
13369;DHT22;6753;52.520;13.450;2023-01-06T00:04:27;20.30;52.00
13369;DHT22;6753;52.520;13.450;2023-01-06T00:04:38;20.30;51.90
13369;DHT22;6753;52.520;13.450;2023-01-06T00:04:48;20.30;51.90
13369;DHT22;6753;52.520;13.450;2023-01-06T00:04:59;20.30;51.90
13369;DHT22;6753;52.520;13.450;2023-01-06T00:05:10;20.30;51.90
13369;DHT22;6753;52.520;13.450;2023-01-06T00:05:21;20.30;52.10
13369;DHT22;6753;52.520;13.450;2023-01-06T00:05:31;20.30;52.30
13369;DHT22;6753;52.520;13.450;2023-01-06T00:05:42;20.30;52.40
13369;DHT22;6753;52.520;13.450;2023-01-06T00:05:56;20.30;52.50
13369;DHT22;6753;52.520;13.450;2023-01-06T00:06:09;20.30;52.50
13369;DHT22;6753;52.520;13.450;2023-01-06T00:06:25;20.30;52.40
13369;DHT22;6753;52.520;13.450;2023-01-06T00:06:36;19.60;51.20
13369;DHT22;6753;52.520;13.450;2023-01-06T00:06:47;20.30;52.00
13369;DHT22;6753;52.520;13.450;2023-01-06T00:06:58;20.30;52.00
13369;DHT22;6753;52.520;13.450;2023-01-06T00:07:10;20.30;51.90
13369;DHT22;6753;52.520;13.450;2023-01-06T00:07:20;20.30;51.90
13369;DHT22;6753;52.520;13.450;2023-01-06T00:07:31;20.30;52.00
13369;DHT22;6753;52.520;13.450;2023-01-06T00:07:42;20.30;52.00
13369;DHT22;6753;52.520;13.450;2023-01-06T00:07:53;20.30;52.10
13369;DHT22;6753;52.520;13.450;2023-01-06T00:08:04;20.30;52.20
13369;DHT22;6753;52.520;13.450;2023-01-06T00:08:15;20.30;52.20
13369;DHT22;6753;52.520;13.450;2023-01-06T00:08:26;20.30;52.20
13369;DHT22;6753;52.520;13.450;2023-01-06T00:08:37;20.30;52.30
13369;DHT22;6753;52.520;13.450;2023-01-06T00:08:49;20.30;52.80
13369;DHT22;6753;52.520;13.450;2023-01-06T00:09:02;20.30;52.30
13369;DHT22;6753;52.520;13.450;2023-01-06T00:09:13;20.30;52.20
13369;DHT22;6753;52.520;13.450;2023-01-06T00:09:24;20.30;52.20
13369;DHT22;6753;52.520;13.450;2023-01-06T00:09:34;20.30;52.30
13369;DHT22;6753;52.520;13.450;2023-01-06T00:09:45;20.30;52.40
13369;DHT22;6753;52.520;13.450;2023-01-06T00:09:57;20.30;52.50
13369;DHT22;6753;52.520;13.450;2023-01-06T00:10:08;20.30;52.60
13369;DHT22;6753;52.520;13.450;2023-01-06T00:10:19;20.30;52.50
13369;DHT22;6753;52.520;13.450;2023-01-06T00:10:30;20.30;52.40
13369;DHT22;6753;52.520;13.450;2023-01-06T00:10:40;20.30;52.50
13369;DHT22;6753;52.520;13.450;2023-01-06T00:10:51;20.30;52.70
13369;DHT22;6753;52.520;13.450;2023-01-06T00:11:05;20.30;52.70
13369;DHT22;6753;52.520;13.450;2023-01-06T00:11:17;20.30;52.70
13369;DHT22;6753;52.520;13.450;2023-01-06T00:11:29;20.30;52.60
13369;DHT22;6753;52.520;13.450;2023-01-06T00:11:40;20.30;52.60
13369;DHT22;6753;52.520;13.450;2023-01-06T00:11:51;20.20;52.40
13369;DHT22;6753;52.520;13.450;2023-01-06T00:12:01;20.30;52.50
13369;DHT22;6753;52.520;13.450;2023-01-06T00:12:13;20.30;52.50
13369;DHT22;6753;52.520;13.450;2023-01-06T00:12:24;20.30;52.50
13369;DHT22;6753;52.520;13.450;2023-01-06T00:12:36;20.20;52.30
13369;DHT22;6753;52.520;13.450;2023-01-06T00:12:47;20.30;52.50
13369;DHT22;6753;52.520;13.450;2023-01-06T00:12:58;20.30;52.50
13369;DHT22;6753;52.520;13.450;2023-01-06T00:13:09;20.30;52.50
13369;DHT22;6753;52.520;13.450;2023-01-06T00:13:20;20.30;52.60
13369;DHT22;6753;52.520;13.450;2023-01-06T00:13:31;20.20;52.40
13369;DHT22;6753;52.520;13.450;2023-01-06T00:13:41;20.20;52.40
13369;DHT22;6753;52.520;13.450;2023-01-06T00:13:53;20.20;52.40
13369;DHT22;6753;52.520;13.450;2023-01-06T00:14:08;20.30;52.60
13369;DHT22;6753;52.520;13.450;2023-01-06T00:14:19;20.30;52.80
13369;DHT22;6753;52.520;13.450;2023-01-06T00:14:30;20.20;52.80
13369;DHT22;6753;52.520;13.450;2023-01-06T00:14:41;20.20;52.60
13369;DHT22;6753;52.520;13.450;2023-01-06T00:14:52;20.20;52.60
13369;DHT22;6753;52.520;13.450;2023-01-06T00:15:04;20.20;52.80
13369;DHT22;6753;52.520;13.450;2023-01-06T00:15:16;20.20;53.00
13369;DHT22;6753;52.520;13.450;2023-01-06T00:15:28;20.20;53.10
13369;DHT22;6753;52.520;13.450;2023-01-06T00:15:42;20.30;53.40
13369;DHT22;6753;52.520;13.450;2023-01-06T00:15:53;20.30;53.30
13369;DHT22;6753;52.520;13.450;2023-01-06T00:16:05;20.30;53.20
13369;DHT22;6753;52.520;13.450;2023-01-06T00:16:18;20.30;53.10
13369;DHT22;6753;52.520;13.450;2023-01-06T00:16:30;20.30;53.00
13369;DHT22;6753;52.520;13.450;2023-01-06T00:16:40;20.30;53.10
13369;DHT22;6753;52.520;13.450;2023-01-06T00:16:51;20.30;53.00
13369;DHT22;6753;52.520;13.450;2023-01-06T00:17:02;20.20;52.90
13369;DHT22;6753;52.520;13.450;2023-01-06T00:17:13;20.30;53.00
13369;DHT22;6753;52.520;13.450;2023-01-06T00:17:24;20.30;52.90
13369;DHT22;6753;52.520;13.450;2023-01-06T00:17:35;20.30;52.90
13369;DHT22;6753;52.520;13.450;2023-01-06T00:17:48;21.40;54.40
13369;DHT22;6753;52.520;13.450;2023-01-06T00:17:58;20.30;52.80
13369;DHT22;6753;52.520;13.450;2023-01-06T00:18:09;20.30;52.70
13369;DHT22;6753;52.520;13.450;2023-01-06T00:18:20;20.20;52.70
13369;DHT22;6753;52.520;13.450;2023-01-06T00:18:31;20.20;52.70
13369;DHT22;6753;52.520;13.450;2023-01-06T00:18:43;20.20;52.80
13369;DHT22;6753;52.520;13.450;2023-01-06T00:18:58;20.20;52.90
13369;DHT22;6753;52.520;13.450;2023-01-06T00:19:10;20.20;52.80
13369;DHT22;6753;52.520;13.450;2023-01-06T00:19:20;20.20;52.80
13369;DHT22;6753;52.520;13.450;2023-01-06T00:19:31;20.20;52.80
13369;DHT22;6753;52.520;13.450;2023-01-06T00:19:42;20.20;52.90
13369;DHT22;6753;52.520;13.450;2023-01-06T00:19:53;20.20;52.90
13369;DHT22;6753;52.520;13.450;2023-01-06T00:20:05;20.20;52.80
13369;DHT22;6753;52.520;13.450;2023-01-06T00:20:16;20.20;53.10
13369;DHT22;6753;52.520;13.450;2023-01-06T00:20:27;20.20;52.70
13369;DHT22;6753;52.520;13.450;2023-01-06T00:20:38;20.20;52.70
13369;DHT22;6753;52.520;13.450;2023-01-06T00:20:49;20.20;52.70
13369;DHT22;6753;52.520;13.450;2023-01-06T00:21:00;20.20;53.30
13369;DHT22;6753;52.520;13.450;2023-01-06T00:21:12;20.20;53.00
13369;DHT22;6753;52.520;13.450;2023-01-06T00:21:25;20.20;53.10
13369;DHT22;6753;52.520;13.450;2023-01-06T00:21:35;22.50;56.40
13369;DHT22;6753;52.520;13.450;2023-01-06T00:21:46;20.20;53.00
13369;DHT22;6753;52.520;13.450;2023-01-06T00:21:57;20.20;52.90
13369;DHT22;6753;52.520;13.450;2023-01-06T00:22:08;20.20;52.80
13369;DHT22;6753;52.520;13.450;2023-01-06T00:22:18;20.20;52.90
13369;DHT22;6753;52.520;13.450;2023-01-06T00:22:29;20.20;52.90
13369;DHT22;6753;52.520;13.450;2023-01-06T00:22:41;20.20;53.00
13369;DHT22;6753;52.520;13.450;2023-01-06T00:22:52;20.30;53.30
13369;DHT22;6753;52.520;13.450;2023-01-06T00:23:03;20.30;53.20
13369;DHT22;6753;52.520;13.450;2023-01-06T00:23:14;20.30;53.10
13369;DHT22;6753;52.520;13.450;2023-01-06T00:23:25;20.20;52.80
13369;DHT22;6753;52.520;13.450;2023-01-06T00:23:36;20.30;52.90
13369;DHT22;6753;52.520;13.450;2023-01-06T00:23:47;20.20;52.60
13369;DHT22;6753;52.520;13.450;2023-01-06T00:23:58;20.30;52.70
13369;DHT22;6753;52.520;13.450;2023-01-06T00:24:09;20.20;52.80
13369;DHT22;6753;52.520;13.450;2023-01-06T00:24:21;20.20;52.90
13369;DHT22;6753;52.520;13.450;2023-01-06T00:24:32;20.20;52.90
13369;DHT22;6753;52.520;13.450;2023-01-06T00:24:42;20.20;52.90
13369;DHT22;6753;52.520;13.450;2023-01-06T00:24:53;20.20;52.90
13369;DHT22;6753;52.520;13.450;2023-01-06T00:25:05;20.20;52.80
13369;DHT22;6753;52.520;13.450;2023-01-06T00:25:19;20.20;53.00
13369;DHT22;6753;52.520;13.450;2023-01-06T00:25:30;20.30;53.20
13369;DHT22;6753;52.520;13.450;2023-01-06T00:25:48;20.20;53.00
13369;DHT22;6753;52.520;13.450;2023-01-06T00:25:58;20.20;53.00
13369;DHT22;6753;52.520;13.450;2023-01-06T00:26:11;20.20;53.00
13369;DHT22;6753;52.520;13.450;2023-01-06T00:26:22;20.20;52.90
13369;DHT22;6753;52.520;13.450;2023-01-06T00:26:33;20.20;52.90
13369;DHT22;6753;52.520;13.450;2023-01-06T00:26:44;22.80;56.70
13369;DHT22;6753;52.520;13.450;2023-01-06T00:26:54;20.20;53.00
13369;DHT22;6753;52.520;13.450;2023-01-06T00:27:05;20.20;53.50
13369;DHT22;6753;52.520;13.450;2023-01-06T00:27:16;20.20;52.90
13369;DHT22;6753;52.520;13.450;2023-01-06T00:27:26;20.20;53.00
13369;DHT22;6753;52.520;13.450;2023-01-06T00:27:39;20.20;53.00
13369;DHT22;6753;52.520;13.450;2023-01-06T00:27:49;20.20;53.00
13369;DHT22;6753;52.520;13.450;2023-01-06T00:28:00;21.70;55.20
13369;DHT22;6753;52.520;13.450;2023-01-06T00:28:11;20.10;52.90
13369;DHT22;6753;52.520;13.450;2023-01-06T00:28:21;20.20;53.10
13369;DHT22;6753;52.520;13.450;2023-01-06T00:28:33;20.20;53.00
13369;DHT22;6753;52.520;13.450;2023-01-06T00:28:45;20.20;53.00
13369;DHT22;6753;52.520;13.450;2023-01-06T00:28:56;20.20;53.00
13369;DHT22;6753;52.520;13.450;2023-01-06T00:29:09;20.20;53.00
13369;DHT22;6753;52.520;13.450;2023-01-06T00:29:20;20.20;53.00
13369;DHT22;6753;52.520;13.450;2023-01-06T00:29:30;20.10;52.90
13369;DHT22;6753;52.520;13.450;2023-01-06T00:29:41;20.10;52.80
13369;DHT22;6753;52.520;13.450;2023-01-06T00:29:53;20.10;52.90
13369;DHT22;6753;52.520;13.450;2023-01-06T00:30:05;20.20;53.10
13369;DHT22;6753;52.520;13.450;2023-01-06T00:30:16;20.10;53.00
13369;DHT22;6753;52.520;13.450;2023-01-06T00:30:27;20.10;53.00
13369;DHT22;6753;52.520;13.450;2023-01-06T00:30:37;20.20;53.20
13369;DHT22;6753;52.520;13.450;2023-01-06T00:30:48;20.20;53.20
13369;DHT22;6753;52.520;13.450;2023-01-06T00:31:04;20.10;53.30
13369;DHT22;6753;52.520;13.450;2023-01-06T00:31:16;20.10;53.10
13369;DHT22;6753;52.520;13.450;2023-01-06T00:31:27;20.10;53.20
13369;DHT22;6753;52.520;13.450;2023-01-06T00:31:38;20.10;53.20
13369;DHT22;6753;52.520;13.450;2023-01-06T00:31:49;20.10;53.30
13369;DHT22;6753;52.520;13.450;2023-01-06T00:32:00;20.10;53.30
13369;DHT22;6753;52.520;13.450;2023-01-06T00:32:11;20.10;53.30
13369;DHT22;6753;52.520;13.450;2023-01-06T00:32:22;20.10;53.30
13369;DHT22;6753;52.520;13.450;2023-01-06T00:32:33;20.10;53.30
13369;DHT22;6753;52.520;13.450;2023-01-06T00:32:44;20.10;53.30
13369;DHT22;6753;52.520;13.450;2023-01-06T00:32:56;20.10;53.30
13369;DHT22;6753;52.520;13.450;2023-01-06T00:33:07;20.20;53.30
13369;DHT22;6753;52.520;13.450;2023-01-06T00:33:18;20.10;53.30
13369;DHT22;6753;52.520;13.450;2023-01-06T00:33:28;20.10;53.20
13369;DHT22;6753;52.520;13.450;2023-01-06T00:33:39;20.10;53.20
13369;DHT22;6753;52.520;13.450;2023-01-06T00:33:51;20.10;53.30
13369;DHT22;6753;52.520;13.450;2023-01-06T00:34:04;20.10;53.20
13369;DHT22;6753;52.520;13.450;2023-01-06T00:34:15;20.10;53.30
13369;DHT22;6753;52.520;13.450;2023-01-06T00:34:26;20.10;53.30
13369;DHT22;6753;52.520;13.450;2023-01-06T00:34:36;20.10;53.30
13369;DHT22;6753;52.520;13.450;2023-01-06T00:34:47;20.10;53.40
13369;DHT22;6753;52.520;13.450;2023-01-06T00:34:58;20.10;53.40
13369;DHT22;6753;52.520;13.450;2023-01-06T00:35:09;20.20;53.50
13369;DHT22;6753;52.520;13.450;2023-01-06T00:35:20;20.10;53.50
13369;DHT22;6753;52.520;13.450;2023-01-06T00:35:31;19.30;52.30
13369;DHT22;6753;52.520;13.450;2023-01-06T00:35:41;20.10;53.60
13369;DHT22;6753;52.520;13.450;2023-01-06T00:35:57;20.10;53.60
13369;DHT22;6753;52.520;13.450;2023-01-06T00:36:09;20.10;53.70
13369;DHT22;6753;52.520;13.450;2023-01-06T00:36:21;20.10;53.70
13369;DHT22;6753;52.520;13.450;2023-01-06T00:36:33;20.10;54.30
13369;DHT22;6753;52.520;13.450;2023-01-06T00:36:43;20.10;53.60
13369;DHT22;6753;52.520;13.450;2023-01-06T00:36:54;20.10;53.50
13369;DHT22;6753;52.520;13.450;2023-01-06T00:37:05;20.10;53.50
13369;DHT22;6753;52.520;13.450;2023-01-06T00:37:16;20.10;53.50
13369;DHT22;6753;52.520;13.450;2023-01-06T00:37:27;20.10;53.50
13369;DHT22;6753;52.520;13.450;2023-01-06T00:37:40;20.10;53.40
13369;DHT22;6753;52.520;13.450;2023-01-06T00:37:51;20.10;53.40
13369;DHT22;6753;52.520;13.450;2023-01-06T00:38:01;20.10;53.60
13369;DHT22;6753;52.520;13.450;2023-01-06T00:38:12;20.10;53.40
13369;DHT22;6753;52.520;13.450;2023-01-06T00:38:23;20.10;53.40
13369;DHT22;6753;52.520;13.450;2023-01-06T00:38:34;20.10;53.40
13369;DHT22;6753;52.520;13.450;2023-01-06T00:38:48;20.10;53.40
13369;DHT22;6753;52.520;13.450;2023-01-06T00:38:59;20.10;53.40
13369;DHT22;6753;52.520;13.450;2023-01-06T00:39:11;20.10;53.50
13369;DHT22;6753;52.520;13.450;2023-01-06T00:39:22;20.10;53.50
13369;DHT22;6753;52.520;13.450;2023-01-06T00:39:33;20.10;53.50
13369;DHT22;6753;52.520;13.450;2023-01-06T00:39:43;20.10;53.60
13369;DHT22;6753;52.520;13.450;2023-01-06T00:39:54;20.10;53.70
13369;DHT22;6753;52.520;13.450;2023-01-06T00:40:06;20.10;53.80
13369;DHT22;6753;52.520;13.450;2023-01-06T00:40:17;20.10;53.90
13369;DHT22;6753;52.520;13.450;2023-01-06T00:40:28;20.10;53.90
13369;DHT22;6753;52.520;13.450;2023-01-06T00:40:38;20.10;54.10
13369;DHT22;6753;52.520;13.450;2023-01-06T00:40:49;20.10;54.00
13369;DHT22;6753;52.520;13.450;2023-01-06T00:41:03;20.10;53.90
13369;DHT22;6753;52.520;13.450;2023-01-06T00:41:35;20.10;53.80
13369;DHT22;6753;52.520;13.450;2023-01-06T00:42:04;20.10;53.80
13369;DHT22;6753;52.520;13.450;2023-01-06T00:42:15;20.10;53.80
13369;DHT22;6753;52.520;13.450;2023-01-06T00:42:26;20.10;53.80
13369;DHT22;6753;52.520;13.450;2023-01-06T00:42:36;20.10;53.80
13369;DHT22;6753;52.520;13.450;2023-01-06T00:42:47;20.00;53.60
13369;DHT22;6753;52.520;13.450;2023-01-06T00:42:58;20.10;53.60
13369;DHT22;6753;52.520;13.450;2023-01-06T00:43:10;20.10;53.60
13369;DHT22;6753;52.520;13.450;2023-01-06T00:43:20;20.10;53.90
13369;DHT22;6753;52.520;13.450;2023-01-06T00:43:31;20.10;54.00
13369;DHT22;6753;52.520;13.450;2023-01-06T00:43:42;20.10;54.00
13369;DHT22;6753;52.520;13.450;2023-01-06T00:43:53;20.10;54.00
13369;DHT22;6753;52.520;13.450;2023-01-06T00:44:04;20.10;54.00
13369;DHT22;6753;52.520;13.450;2023-01-06T00:44:15;20.10;54.00
13369;DHT22;6753;52.520;13.450;2023-01-06T00:44:26;20.10;53.90
13369;DHT22;6753;52.520;13.450;2023-01-06T00:44:38;20.10;54.00
13369;DHT22;6753;52.520;13.450;2023-01-06T00:44:49;20.10;54.20
13369;DHT22;6753;52.520;13.450;2023-01-06T00:45:00;20.10;54.10
13369;DHT22;6753;52.520;13.450;2023-01-06T00:45:11;20.10;54.30
13369;DHT22;6753;52.520;13.450;2023-01-06T00:45:22;20.10;54.30
13369;DHT22;6753;52.520;13.450;2023-01-06T00:45:32;20.00;54.10
13369;DHT22;6753;52.520;13.450;2023-01-06T00:45:43;20.10;54.30
13369;DHT22;6753;52.520;13.450;2023-01-06T00:45:54;20.10;54.10
13369;DHT22;6753;52.520;13.450;2023-01-06T00:46:05;20.10;54.10
13369;DHT22;6753;52.520;13.450;2023-01-06T00:46:16;20.10;54.00
13369;DHT22;6753;52.520;13.450;2023-01-06T00:46:28;20.00;53.80
13369;DHT22;6753;52.520;13.450;2023-01-06T00:46:39;20.10;54.00
13369;DHT22;6753;52.520;13.450;2023-01-06T00:46:50;20.10;54.10
13369;DHT22;6753;52.520;13.450;2023-01-06T00:47:01;20.10;54.10
13369;DHT22;6753;52.520;13.450;2023-01-06T00:47:12;21.30;55.80
13369;DHT22;6753;52.520;13.450;2023-01-06T00:47:24;20.10;54.20
13369;DHT22;6753;52.520;13.450;2023-01-06T00:47:35;20.10;54.20
13369;DHT22;6753;52.520;13.450;2023-01-06T00:47:46;20.10;54.20
13369;DHT22;6753;52.520;13.450;2023-01-06T00:47:58;20.10;54.20
13369;DHT22;6753;52.520;13.450;2023-01-06T00:48:09;20.10;54.10
13369;DHT22;6753;52.520;13.450;2023-01-06T00:48:20;20.10;54.10
13369;DHT22;6753;52.520;13.450;2023-01-06T00:48:30;20.00;54.00
13369;DHT22;6753;52.520;13.450;2023-01-06T00:48:41;20.10;54.10
13369;DHT22;6753;52.520;13.450;2023-01-06T00:48:52;20.00;54.00
13369;DHT22;6753;52.520;13.450;2023-01-06T00:49:04;20.10;54.30
13369;DHT22;6753;52.520;13.450;2023-01-06T00:49:15;20.10;54.30
13369;DHT22;6753;52.520;13.450;2023-01-06T00:49:26;20.10;54.30
13369;DHT22;6753;52.520;13.450;2023-01-06T00:49:37;20.10;54.30
13369;DHT22;6753;52.520;13.450;2023-01-06T00:49:48;20.10;54.30
13369;DHT22;6753;52.520;13.450;2023-01-06T00:50:01;20.00;54.20
13369;DHT22;6753;52.520;13.450;2023-01-06T00:50:13;23.20;58.80
13369;DHT22;6753;52.520;13.450;2023-01-06T00:50:24;20.10;54.30
13369;DHT22;6753;52.520;13.450;2023-01-06T00:50:35;20.10;54.20
13369;DHT22;6753;52.520;13.450;2023-01-06T00:50:45;20.10;54.20
13369;DHT22;6753;52.520;13.450;2023-01-06T00:50:59;20.10;54.30
13369;DHT22;6753;52.520;13.450;2023-01-06T00:51:10;20.10;54.20
13369;DHT22;6753;52.520;13.450;2023-01-06T00:51:20;20.10;54.30
13369;DHT22;6753;52.520;13.450;2023-01-06T00:51:33;20.10;54.30
13369;DHT22;6753;52.520;13.450;2023-01-06T00:51:43;20.10;54.20
13369;DHT22;6753;52.520;13.450;2023-01-06T00:51:54;20.10;54.20
13369;DHT22;6753;52.520;13.450;2023-01-06T00:52:05;20.10;54.20
13369;DHT22;6753;52.520;13.450;2023-01-06T00:52:16;20.10;54.20
13369;DHT22;6753;52.520;13.450;2023-01-06T00:52:26;20.10;54.20
13369;DHT22;6753;52.520;13.450;2023-01-06T00:52:38;20.10;54.30
13369;DHT22;6753;52.520;13.450;2023-01-06T00:52:49;20.10;54.20
13369;DHT22;6753;52.520;13.450;2023-01-06T00:53:00;20.10;54.20
13369;DHT22;6753;52.520;13.450;2023-01-06T00:53:10;20.10;54.20
13369;DHT22;6753;52.520;13.450;2023-01-06T00:53:21;20.10;54.10
13369;DHT22;6753;52.520;13.450;2023-01-06T00:53:32;20.10;54.20
13369;DHT22;6753;52.520;13.450;2023-01-06T00:53:43;20.10;54.20
13369;DHT22;6753;52.520;13.450;2023-01-06T00:53:54;20.10;54.20
13369;DHT22;6753;52.520;13.450;2023-01-06T00:54:06;20.10;54.20
13369;DHT22;6753;52.520;13.450;2023-01-06T00:54:17;20.10;54.20
13369;DHT22;6753;52.520;13.450;2023-01-06T00:54:28;20.00;54.00
13369;DHT22;6753;52.520;13.450;2023-01-06T00:54:38;20.00;54.00
13369;DHT22;6753;52.520;13.450;2023-01-06T00:54:49;20.10;54.20
13369;DHT22;6753;52.520;13.450;2023-01-06T00:55:01;20.10;54.20
13369;DHT22;6753;52.520;13.450;2023-01-06T00:55:12;19.10;52.80
13369;DHT22;6753;52.520;13.450;2023-01-06T00:55:22;20.10;54.20
13369;DHT22;6753;52.520;13.450;2023-01-06T00:55:33;21.30;56.00
13369;DHT22;6753;52.520;13.450;2023-01-06T00:55:44;20.10;54.30
13369;DHT22;6753;52.520;13.450;2023-01-06T00:55:59;20.10;54.20
13369;DHT22;6753;52.520;13.450;2023-01-06T00:56:10;20.10;54.20
13369;DHT22;6753;52.520;13.450;2023-01-06T00:56:21;20.00;54.00
13369;DHT22;6753;52.520;13.450;2023-01-06T00:56:34;20.10;54.10
13369;DHT22;6753;52.520;13.450;2023-01-06T00:56:47;20.10;54.00
13369;DHT22;6753;52.520;13.450;2023-01-06T00:56:58;20.00;53.80
13369;DHT22;6753;52.520;13.450;2023-01-06T00:57:09;20.10;53.90
13369;DHT22;6753;52.520;13.450;2023-01-06T00:57:21;20.10;54.00
13369;DHT22;6753;52.520;13.450;2023-01-06T00:57:31;20.10;53.90
13369;DHT22;6753;52.520;13.450;2023-01-06T00:57:42;20.10;54.10
13369;DHT22;6753;52.520;13.450;2023-01-06T00:57:53;20.00;54.00
13369;DHT22;6753;52.520;13.450;2023-01-06T00:58:04;20.10;54.30
13369;DHT22;6753;52.520;13.450;2023-01-06T00:58:14;20.10;54.30
13369;DHT22;6753;52.520;13.450;2023-01-06T00:58:28;20.10;54.30
13369;DHT22;6753;52.520;13.450;2023-01-06T00:58:39;20.10;54.30
13369;DHT22;6753;52.520;13.450;2023-01-06T00:58:50;20.10;54.30
13369;DHT22;6753;52.520;13.450;2023-01-06T00:59:01;20.10;54.30
13369;DHT22;6753;52.520;13.450;2023-01-06T00:59:13;20.10;54.30
13369;DHT22;6753;52.520;13.450;2023-01-06T00:59:25;20.10;54.30
13369;DHT22;6753;52.520;13.450;2023-01-06T00:59:36;20.10;54.30
13369;DHT22;6753;52.520;13.450;2023-01-06T00:59:46;20.10;54.30
13369;DHT22;6753;52.520;13.450;2023-01-06T00:59:57;20.10;54.20
13369;DHT22;6753;52.520;13.450;2023-01-06T01:00:09;20.00;54.20
13369;DHT22;6753;52.520;13.450;2023-01-06T01:00:21;20.10;54.30
13369;DHT22;6753;52.520;13.450;2023-01-06T01:00:31;20.10;54.30
13369;DHT22;6753;52.520;13.450;2023-01-06T01:00:42;20.10;54.30
13369;DHT22;6753;52.520;13.450;2023-01-06T01:00:53;20.00;54.20
13369;DHT22;6753;52.520;13.450;2023-01-06T01:01:04;20.10;54.30
13369;DHT22;6753;52.520;13.450;2023-01-06T01:01:15;20.10;54.30
13369;DHT22;6753;52.520;13.450;2023-01-06T01:01:26;20.00;54.20
13369;DHT22;6753;52.520;13.450;2023-01-06T01:01:37;20.10;54.40
13369;DHT22;6753;52.520;13.450;2023-01-06T01:01:50;20.10;54.30
13369;DHT22;6753;52.520;13.450;2023-01-06T01:02:01;20.10;54.30
13369;DHT22;6753;52.520;13.450;2023-01-06T01:02:12;20.10;54.30
13369;DHT22;6753;52.520;13.450;2023-01-06T01:02:23;20.10;54.40
13369;DHT22;6753;52.520;13.450;2023-01-06T01:02:34;20.10;54.40
13369;DHT22;6753;52.520;13.450;2023-01-06T01:02:46;20.10;54.40
13369;DHT22;6753;52.520;13.450;2023-01-06T01:02:58;20.10;54.50
13369;DHT22;6753;52.520;13.450;2023-01-06T01:03:09;20.10;54.50
13369;DHT22;6753;52.520;13.450;2023-01-06T01:03:19;21.50;56.50
13369;DHT22;6753;52.520;13.450;2023-01-06T01:03:31;20.10;54.40
13369;DHT22;6753;52.520;13.450;2023-01-06T01:03:42;20.10;54.40
13369;DHT22;6753;52.520;13.450;2023-01-06T01:03:53;20.10;54.50
13369;DHT22;6753;52.520;13.450;2023-01-06T01:04:05;20.00;54.40
13369;DHT22;6753;52.520;13.450;2023-01-06T01:04:16;20.10;54.50
13369;DHT22;6753;52.520;13.450;2023-01-06T01:04:28;20.10;54.50
13369;DHT22;6753;52.520;13.450;2023-01-06T01:04:38;20.10;54.50
13369;DHT22;6753;52.520;13.450;2023-01-06T01:04:49;20.10;54.60
13369;DHT22;6753;52.520;13.450;2023-01-06T01:05:00;20.10;54.60
13369;DHT22;6753;52.520;13.450;2023-01-06T01:05:12;20.10;54.50
13369;DHT22;6753;52.520;13.450;2023-01-06T01:05:23;20.10;54.50
13369;DHT22;6753;52.520;13.450;2023-01-06T01:05:34;20.10;54.50
13369;DHT22;6753;52.520;13.450;2023-01-06T01:05:44;20.10;54.50
13369;DHT22;6753;52.520;13.450;2023-01-06T01:06:01;20.10;54.40
13369;DHT22;6753;52.520;13.450;2023-01-06T01:06:12;21.70;56.70
13369;DHT22;6753;52.520;13.450;2023-01-06T01:06:23;20.10;54.40
13369;DHT22;6753;52.520;13.450;2023-01-06T01:06:34;20.10;54.40
13369;DHT22;6753;52.520;13.450;2023-01-06T01:06:47;20.10;54.40
13369;DHT22;6753;52.520;13.450;2023-01-06T01:06:58;20.10;54.50
13369;DHT22;6753;52.520;13.450;2023-01-06T01:07:09;20.10;54.50
13369;DHT22;6753;52.520;13.450;2023-01-06T01:07:20;20.10;54.50
13369;DHT22;6753;52.520;13.450;2023-01-06T01:07:31;20.10;54.50
13369;DHT22;6753;52.520;13.450;2023-01-06T01:07:43;20.10;54.50
13369;DHT22;6753;52.520;13.450;2023-01-06T01:07:53;20.10;54.40
13369;DHT22;6753;52.520;13.450;2023-01-06T01:08:04;20.10;54.50
13369;DHT22;6753;52.520;13.450;2023-01-06T01:08:15;20.00;54.40
13369;DHT22;6753;52.520;13.450;2023-01-06T01:08:26;20.10;54.50
13369;DHT22;6753;52.520;13.450;2023-01-06T01:08:37;20.10;54.50
13369;DHT22;6753;52.520;13.450;2023-01-06T01:08:51;20.10;54.50
13369;DHT22;6753;52.520;13.450;2023-01-06T01:09:03;20.00;54.40
13369;DHT22;6753;52.520;13.450;2023-01-06T01:09:18;20.00;54.40
13369;DHT22;6753;52.520;13.450;2023-01-06T01:09:31;20.00;54.40
13369;DHT22;6753;52.520;13.450;2023-01-06T01:09:42;20.00;54.40
13369;DHT22;6753;52.520;13.450;2023-01-06T01:09:53;20.00;54.50
13369;DHT22;6753;52.520;13.450;2023-01-06T01:10:04;20.00;54.50
13369;DHT22;6753;52.520;13.450;2023-01-06T01:10:15;20.00;54.50
13369;DHT22;6753;52.520;13.450;2023-01-06T01:10:26;20.00;54.50
13369;DHT22;6753;52.520;13.450;2023-01-06T01:10:38;20.00;54.50
13369;DHT22;6753;52.520;13.450;2023-01-06T01:10:48;20.00;54.50
13369;DHT22;6753;52.520;13.450;2023-01-06T01:11:01;20.00;54.50
13369;DHT22;6753;52.520;13.450;2023-01-06T01:11:15;20.00;54.50
13369;DHT22;6753;52.520;13.450;2023-01-06T01:11:40;20.00;54.80
13369;DHT22;6753;52.520;13.450;2023-01-06T01:12:11;20.00;54.40
13369;DHT22;6753;52.520;13.450;2023-01-06T01:12:22;20.00;54.50
13369;DHT22;6753;52.520;13.450;2023-01-06T01:12:32;20.00;54.50
13369;DHT22;6753;52.520;13.450;2023-01-06T01:12:44;20.00;54.60